Time;durP1;ratioP1;P1;durP2;ratioP2;P2;SDS_P1;SDS_P2;PMS_P1;PMS_P2;Temp;Humidity;BMP_temperature;BMP_pressure;BME280_temperature;BME280_humidity;BME280_pressure;Samples;Min_cycle;Max_cycle;Signal;HPM_P1;HPM_P2
2024/01/18 00:00:06;;;;;;;1.10;0.60;;;8.90;64.50;;;;;;5050717;28;46536;-72
2024/01/18 00:02:31;;;;;;;1.70;0.70;;;8.80;64.40;;;;;;5053908;28;46618;-73
2024/01/18 00:04:57;;;;;;;1.93;0.70;;;8.80;64.40;;;;;;5050739;28;46238;-73
2024/01/18 00:07:22;;;;;;;1.73;0.80;;;8.80;64.40;;;;;;5053018;28;46517;-73
2024/01/18 00:09:48;;;;;;;1.53;0.80;;;8.80;64.40;;;;;;5051553;28;46484;-73
2024/01/18 00:12:14;;;;;;;1.73;0.70;;;8.80;64.40;;;;;;5054118;28;45995;-72
2024/01/18 00:14:39;;;;;;;1.10;0.60;;;8.80;64.40;;;;;;5057743;28;46416;-73
2024/01/18 00:17:05;;;;;;;1.93;1.03;;;8.80;64.50;;;;;;5054047;28;46428;-73
2024/01/18 00:19:30;;;;;;;1.73;0.70;;;8.80;64.90;;;;;;5050926;28;46885;-73
2024/01/18 00:21:56;;;;;;;1.10;0.60;;;8.70;64.80;;;;;;5052622;28;46150;-73
2024/01/18 00:24:22;;;;;;;1.00;0.60;;;8.70;64.90;;;;;;5056860;28;46351;-72
2024/01/18 00:26:47;;;;;;;1.00;0.60;;;8.70;65.20;;;;;;5049889;28;46620;-72
2024/01/18 00:29:13;;;;;;;1.13;0.60;;;8.70;65.30;;;;;;5056282;28;46793;-72
2024/01/18 00:31:39;;;;;;;1.90;0.60;;;8.70;65.30;;;;;;5051710;28;46143;-72
2024/01/18 00:34:05;;;;;;;1.10;0.60;;;8.70;66.60;;;;;;5054385;28;45824;-72
2024/01/18 00:36:30;;;;;;;1.40;0.70;;;8.70;65.50;;;;;;5055292;28;46500;-72
2024/01/18 00:38:56;;;;;;;1.60;0.80;;;8.80;65.50;;;;;;5053756;28;46369;-73
2024/01/18 00:41:22;;;;;;;1.83;0.60;;;8.70;65.40;;;;;;5046100;28;48298;-72
2024/01/18 00:43:48;;;;;;;1.17;0.60;;;8.80;65.50;;;;;;5056976;28;46413;-72
2024/01/18 00:46:14;;;;;;;1.30;0.70;;;8.80;65.50;;;;;;5057793;28;46857;-72
2024/01/18 00:48:39;;;;;;;1.10;0.60;;;8.80;65.50;;;;;;5060502;28;45951;-72
2024/01/18 00:51:05;;;;;;;1.40;0.63;;;8.80;65.60;;;;;;5054244;28;46366;-72
2024/01/18 00:53:30;;;;;;;1.10;0.60;;;8.70;65.60;;;;;;5061618;28;46353;-72
2024/01/18 00:55:56;;;;;;;1.20;0.70;;;8.70;65.40;;;;;;5055979;28;46373;-72
2024/01/18 00:58:21;;;;;;;1.73;0.60;;;8.70;65.60;;;;;;5059683;28;46479;-72
2024/01/18 01:00:47;;;;;;;1.00;0.60;;;8.60;65.70;;;;;;5058171;28;46353;-72
2024/01/18 01:03:13;;;;;;;1.30;0.60;;;8.60;65.70;;;;;;5042560;28;46425;-72
2024/01/18 01:05:38;;;;;;;1.00;0.50;;;8.60;65.80;;;;;;5057606;28;46648;-72
2024/01/18 01:08:04;;;;;;;1.00;0.50;;;8.50;65.80;;;;;;5053776;28;46682;-72
2024/01/18 01:10:30;;;;;;;4.60;0.77;;;8.50;65.80;;;;;;5056918;28;46737;-72
2024/01/18 01:12:56;;;;;;;1.00;0.50;;;8.50;65.80;;;;;;5053461;28;46483;-72
2024/01/18 01:15:21;;;;;;;1.00;0.60;;;8.60;65.80;;;;;;5050421;28;46561;-72
2024/01/18 01:17:47;;;;;;;1.00;0.50;;;8.60;65.80;;;;;;5057207;28;46554;-72
2024/01/18 01:20:12;;;;;;;1.00;0.57;;;8.60;65.80;;;;;;5063133;28;46423;-72
2024/01/18 01:22:38;;;;;;;1.47;1.00;;;8.60;65.50;;;;;;5056813;28;46459;-72
2024/01/18 01:25:04;;;;;;;1.30;0.70;;;8.60;65.50;;;;;;5059437;28;45853;-72
2024/01/18 01:27:30;;;;;;;1.47;0.60;;;8.60;65.40;;;;;;5058421;28;46467;-72
2024/01/18 01:29:55;;;;;;;1.50;0.70;;;8.60;65.40;;;;;;5060105;28;48018;-72
2024/01/18 01:32:21;;;;;;;1.00;0.50;;;8.60;65.50;;;;;;5052452;28;46040;-72
2024/01/18 01:34:46;;;;;;;1.53;0.70;;;8.60;65.40;;;;;;5052514;28;46529;-73
2024/01/18 01:37:13;;;;;;;1.10;0.60;;;8.60;65.40;;;;;;5056365;28;46331;-72
2024/01/18 01:39:39;;;;;;;1.00;0.50;;;8.60;65.60;;;;;;5059173;28;47024;-72
2024/01/18 01:42:05;;;;;;;1.00;0.57;;;8.60;65.60;;;;;;5053196;28;46495;-72
2024/01/18 01:44:31;;;;;;;1.00;0.60;;;8.50;65.50;;;;;;5056203;28;46443;-72
2024/01/18 01:46:56;;;;;;;1.00;0.50;;;8.50;65.50;;;;;;5058204;28;46455;-71
2024/01/18 01:49:22;;;;;;;1.03;0.60;;;8.60;65.70;;;;;;5056650;28;46486;-72
2024/01/18 01:51:51;;;;;;;1.57;0.60;;;8.60;65.40;;;;;;5058889;28;45914;-72
2024/01/18 01:54:19;;;;;;;1.00;0.50;;;8.60;65.20;;;;;;5053300;28;46388;-73
2024/01/18 01:56:49;;;;;;;1.10;0.50;;;8.60;66.40;;;;;;5057187;28;46459;-73
2024/01/18 01:59:16;;;;;;;1.00;0.50;;;8.60;65.20;;;;;;5060901;28;46309;-73
2024/01/18 02:01:43;;;;;;;1.03;0.57;;;8.60;65.10;;;;;;5055417;28;46666;-72
2024/01/18 02:04:09;;;;;;;1.10;0.60;;;8.60;65.20;;;;;;5035826;28;46364;-72
2024/01/18 02:06:36;;;;;;;1.00;0.50;;;8.60;65.40;;;;;;5053535;28;46436;-72
2024/01/18 02:09:02;;;;;;;1.07;0.60;;;8.60;65.30;;;;;;5054846;28;46502;-72
2024/01/18 02:11:28;;;;;;;1.17;0.60;;;8.50;65.20;;;;;;5056621;28;46499;-72
2024/01/18 02:13:57;;;;;;;1.40;0.60;;;8.50;65.20;;;;;;5038428;28;46389;-72
2024/01/18 02:16:23;;;;;;;1.83;0.60;;;8.50;65.20;;;;;;5053078;28;46479;-72
2024/01/18 02:18:49;;;;;;;1.00;0.60;;;8.50;65.20;;;;;;5058033;28;46609;-72
2024/01/18 02:21:15;;;;;;;1.10;0.60;;;8.40;65.20;;;;;;5052599;28;46535;-68
2024/01/18 02:23:47;;;;;;;1.00;0.50;;;8.40;65.10;;;;;;5058417;28;46833;-67
2024/01/18 02:26:13;;;;;;;1.10;0.60;;;8.40;65.20;;;;;;5051583;28;46500;-66
2024/01/18 02:28:57;;;;;;;1.00;0.50;;;8.40;65.10;;;;;;5053666;28;46491;-67
2024/01/18 02:31:24;;;;;;;1.40;0.60;;;8.40;65.10;;;;;;5049567;28;46472;-68
2024/01/18 02:33:50;;;;;;;1.10;0.60;;;8.40;65.00;;;;;;5049140;28;45906;-68
2024/01/18 02:36:17;;;;;;;1.23;0.60;;;8.40;64.90;;;;;;5051040;28;46799;-68
2024/01/18 02:38:44;;;;;;;1.20;0.60;;;8.30;65.00;;;;;;5051016;28;46765;-67
2024/01/18 02:41:10;;;;;;;1.00;0.60;;;8.40;65.00;;;;;;5053762;28;46460;-68
2024/01/18 02:43:36;;;;;;;1.57;0.60;;;8.40;64.80;;;;;;5052477;28;46541;-68
2024/01/18 02:46:01;;;;;;;1.50;0.60;;;8.50;64.70;;;;;;5053651;28;46414;-68
2024/01/18 02:48:27;;;;;;;1.37;0.60;;;8.50;64.10;;;;;;5054383;28;46564;-68
2024/01/18 02:50:52;;;;;;;1.53;0.60;;;8.50;64.10;;;;;;5048796;28;46460;-68
2024/01/18 02:53:20;;;;;;;1.00;0.60;;;8.60;64.20;;;;;;5051271;28;46353;-68
2024/01/18 02:55:46;;;;;;;1.07;0.60;;;8.60;64.20;;;;;;5040715;28;46456;-67
2024/01/18 02:58:11;;;;;;;1.40;0.63;;;8.60;64.20;;;;;;5048863;28;47217;-67
2024/01/18 03:00:38;;;;;;;1.00;0.50;;;8.60;64.20;;;;;;5050735;28;46392;-68
2024/01/18 03:03:04;;;;;;;3.07;0.60;;;8.60;64.30;;;;;;5049108;28;46527;-68
2024/01/18 03:05:31;;;;;;;1.10;0.60;;;8.50;64.10;;;;;;5048950;28;45927;-68
2024/01/18 03:07:57;;;;;;;1.20;0.60;;;8.50;64.10;;;;;;5050298;28;46360;-68
2024/01/18 03:10:22;;;;;;;1.10;0.60;;;8.50;64.10;;;;;;5053830;28;46434;-67
2024/01/18 03:12:48;;;;;;;1.40;0.60;;;8.50;65.20;;;;;;5049830;28;46416;-67
2024/01/18 03:15:13;;;;;;;1.20;0.63;;;8.50;64.10;;;;;;5052838;28;46361;-68
2024/01/18 03:17:39;;;;;;;1.10;0.60;;;8.50;64.20;;;;;;5050889;28;47076;-68
2024/01/18 03:20:07;;;;;;;1.00;0.60;;;8.50;64.10;;;;;;5050801;28;46820;-68
2024/01/18 03:22:39;;;;;;;1.53;0.70;;;8.40;64.10;;;;;;5033994;28;46419;-68
2024/01/18 03:25:05;;;;;;;1.20;0.57;;;8.40;64.00;;;;;;5051816;28;46477;-68
2024/01/18 03:27:31;;;;;;;1.10;0.60;;;8.40;64.00;;;;;;5055029;28;46436;-68
2024/01/18 03:29:57;;;;;;;1.40;0.70;;;8.40;64.00;;;;;;5034411;28;46361;-68
2024/01/18 03:32:22;;;;;;;1.40;0.70;;;8.40;64.00;;;;;;5033002;28;46393;-68
2024/01/18 03:34:49;;;;;;;1.40;0.60;;;8.40;64.00;;;;;;5047933;28;46329;-68
2024/01/18 03:37:14;;;;;;;1.50;0.80;;;8.40;64.00;;;;;;5048957;28;46450;-68
2024/01/18 03:39:40;;;;;;;2.37;0.80;;;8.40;63.70;;;;;;5033780;28;46476;-67
2024/01/18 03:42:05;;;;;;;1.00;0.60;;;8.30;63.70;;;;;;5052815;28;46765;-67
2024/01/18 03:44:33;;;;;;;1.43;0.60;;;8.30;63.50;;;;;;5054086;28;46365;-67
2024/01/18 03:47:00;;;;;;;3.47;0.70;;;8.40;63.40;;;;;;5051806;28;47215;-68
2024/01/18 03:49:26;;;;;;;1.10;0.63;;;8.40;63.10;;;;;;5052245;28;46494;-68
2024/01/18 03:51:51;;;;;;;1.23;0.63;;;8.40;62.90;;;;;;5054169;28;46373;-68
2024/01/18 03:54:18;;;;;;;1.30;0.70;;;8.40;62.80;;;;;;5052987;28;46411;-67
2024/01/18 03:56:44;;;;;;;1.07;0.57;;;8.40;62.90;;;;;;5050137;28;46514;-67
2024/01/18 03:59:14;;;;;;;1.00;0.60;;;8.40;62.70;;;;;;5045233;28;46500;-67
2024/01/18 04:01:39;;;;;;;2.23;0.70;;;8.40;62.50;;;;;;5055546;28;46475;-68
2024/01/18 04:04:05;;;;;;;1.13;0.63;;;8.40;62.50;;;;;;5048484;28;46475;-67
2024/01/18 04:06:31;;;;;;;1.33;0.60;;;8.40;62.70;;;;;;5035677;28;49220;-68
2024/01/18 04:08:56;;;;;;;2.13;0.60;;;8.30;62.60;;;;;;5047459;28;46427;-67
2024/01/18 04:11:22;;;;;;;1.20;0.70;;;8.30;62.80;;;;;;5052858;28;46424;-68
2024/01/18 04:13:47;;;;;;;1.00;0.57;;;8.30;62.80;;;;;;5058652;28;46501;-68
2024/01/18 04:16:13;;;;;;;1.30;0.60;;;8.30;62.70;;;;;;5051311;28;46423;-68
2024/01/18 04:18:39;;;;;;;1.00;0.60;;;8.30;62.80;;;;;;5052474;28;46463;-67
2024/01/18 04:21:05;;;;;;;1.20;0.60;;;8.30;62.80;;;;;;5048906;28;46658;-68
2024/01/18 04:23:30;;;;;;;1.10;0.70;;;8.20;62.90;;;;;;5051409;28;46636;-67
2024/01/18 04:25:56;;;;;;;1.60;0.70;;;8.20;62.80;;;;;;5050184;28;48160;-68
2024/01/18 04:28:22;;;;;;;1.20;0.60;;;8.20;62.80;;;;;;5051619;28;46403;-68
2024/01/18 04:30:48;;;;;;;1.20;0.60;;;8.10;62.80;;;;;;5055420;28;46643;-67
2024/01/18 04:33:13;;;;;;;1.10;0.60;;;8.00;62.90;;;;;;5050783;28;46334;-67
2024/01/18 04:35:39;;;;;;;1.10;0.60;;;8.00;62.90;;;;;;5050547;28;46542;-67
2024/01/18 04:38:06;;;;;;;1.40;0.83;;;7.90;62.90;;;;;;5049118;28;46479;-67
2024/01/18 04:40:33;;;;;;;2.90;0.80;;;7.80;63.00;;;;;;5049066;28;46477;-68
2024/01/18 04:42:58;;;;;;;2.27;0.70;;;7.70;63.40;;;;;;5052065;28;46512;-67
2024/01/18 04:45:24;;;;;;;1.40;0.70;;;7.60;63.30;;;;;;5052514;28;47057;-67
2024/01/18 04:47:52;;;;;;;2.50;0.80;;;7.50;63.30;;;;;;5048216;28;46451;-67
2024/01/18 04:50:24;;;;;;;1.87;0.80;;;7.40;63.60;;;;;;5047664;28;46412;-69
2024/01/18 04:52:50;;;;;;;1.10;0.70;;;7.30;63.80;;;;;;5034341;28;46352;-67
2024/01/18 04:55:15;;;;;;;1.10;0.60;;;7.20;63.70;;;;;;5047125;28;46497;-68
2024/01/18 04:57:41;;;;;;;2.20;0.80;;;7.20;63.60;;;;;;5044498;28;46488;-66
2024/01/18 05:00:10;;;;;;;1.20;0.70;;;7.20;63.50;;;;;;5048072;28;46444;-67
2024/01/18 05:02:42;;;;;;;1.57;0.60;;;7.20;63.20;;;;;;5048491;28;46513;-67
2024/01/18 05:05:08;;;;;;;1.27;0.53;;;7.30;63.10;;;;;;5050418;28;47299;-66
2024/01/18 05:07:34;;;;;;;1.47;0.60;;;7.40;63.20;;;;;;5046711;28;47089;-67
2024/01/18 05:10:01;;;;;;;1.20;0.60;;;7.50;62.70;;;;;;5050643;28;46456;-67
2024/01/18 05:12:27;;;;;;;1.10;0.60;;;7.50;62.30;;;;;;5054549;28;46518;-67
2024/01/18 05:14:52;;;;;;;1.50;0.67;;;7.50;62.30;;;;;;5049384;28;47247;-67
2024/01/18 05:17:21;;;;;;;1.00;0.50;;;7.50;61.90;;;;;;5050285;28;46480;-67
2024/01/18 05:19:46;;;;;;;1.20;0.70;;;7.50;61.90;;;;;;5053676;28;46467;-67
2024/01/18 05:22:12;;;;;;;2.40;0.70;;;7.40;62.00;;;;;;5053373;28;46999;-68
2024/01/18 05:24:38;;;;;;;1.17;0.60;;;7.30;62.20;;;;;;5054804;28;46409;-67
2024/01/18 05:27:05;;;;;;;1.60;0.60;;;7.30;62.50;;;;;;5056350;28;46530;-68
2024/01/18 05:29:31;;;;;;;1.90;0.70;;;7.20;62.80;;;;;;5053407;28;46381;-68
2024/01/18 05:31:57;;;;;;;1.40;0.77;;;7.10;62.80;;;;;;5056245;28;46658;-68
2024/01/18 05:34:22;;;;;;;1.27;0.70;;;7.10;62.90;;;;;;5051640;28;46395;-67
2024/01/18 05:36:48;;;;;;;2.03;0.90;;;7.10;62.90;;;;;;5054253;28;45887;-68
2024/01/18 05:39:14;;;;;;;1.83;1.00;;;7.00;62.80;;;;;;5053640;28;46494;-67
2024/01/18 05:41:40;;;;;;;1.27;0.70;;;7.00;62.90;;;;;;5055964;28;46399;-68
2024/01/18 05:44:05;;;;;;;1.43;0.70;;;7.00;62.60;;;;;;5056807;28;46478;-67
2024/01/18 05:46:31;;;;;;;1.77;0.80;;;7.00;62.80;;;;;;5054504;28;46364;-68
2024/01/18 05:48:56;;;;;;;3.00;0.80;;;7.00;62.80;;;;;;5049081;28;46737;-68
2024/01/18 05:51:22;;;;;;;1.37;0.80;;;6.90;62.80;;;;;;5047591;28;46539;-68
2024/01/18 05:53:47;;;;;;;1.27;0.70;;;7.00;62.40;;;;;;5054790;28;46444;-68
2024/01/18 05:56:13;;;;;;;1.10;0.70;;;7.00;62.30;;;;;;5053964;28;46466;-68
2024/01/18 05:58:38;;;;;;;1.30;0.70;;;6.90;62.30;;;;;;5055910;28;45856;-68
2024/01/18 06:01:05;;;;;;;1.87;0.90;;;6.80;62.50;;;;;;5052676;28;46417;-67
2024/01/18 06:03:30;;;;;;;1.63;0.83;;;6.70;62.60;;;;;;5050396;28;46543;-67
2024/01/18 06:05:58;;;;;;;1.10;0.63;;;6.60;62.50;;;;;;5048793;28;46476;-68
2024/01/18 06:08:24;;;;;;;1.17;0.70;;;6.60;62.60;;;;;;5050008;28;46614;-68
2024/01/18 06:10:49;;;;;;;1.20;0.80;;;6.50;62.40;;;;;;5055576;28;46408;-68
2024/01/18 06:13:15;;;;;;;1.97;0.70;;;6.50;62.40;;;;;;5051594;28;46431;-68
2024/01/18 06:15:41;;;;;;;1.20;0.70;;;6.60;62.50;;;;;;5055947;28;46281;-68
2024/01/18 06:18:06;;;;;;;1.47;0.70;;;6.70;62.60;;;;;;5034913;28;46620;-67
2024/01/18 06:20:32;;;;;;;1.40;0.77;;;6.70;62.20;;;;;;5051966;28;46556;-67
2024/01/18 06:22:58;;;;;;;2.27;0.70;;;6.70;62.10;;;;;;5057464;28;46377;-66
2024/01/18 06:25:24;;;;;;;5.30;0.83;;;6.60;62.40;;;;;;5047462;28;46494;-67
2024/01/18 06:27:50;;;;;;;1.60;0.67;;;6.60;62.50;;;;;;5053935;28;45893;-68
2024/01/18 06:30:18;;;;;;;1.20;0.70;;;6.60;62.50;;;;;;5052786;28;45915;-67
2024/01/18 06:32:44;;;;;;;1.53;0.73;;;6.60;62.40;;;;;;5048502;28;46989;-66
2024/01/18 06:35:10;;;;;;;1.70;0.80;;;6.60;62.40;;;;;;5047705;28;45799;-64
2024/01/18 06:37:36;;;;;;;1.93;0.80;;;6.60;63.60;;;;;;5050938;28;46422;-67
2024/01/18 06:40:02;;;;;;;1.30;0.70;;;6.70;62.10;;;;;;5050936;28;46796;-67
2024/01/18 06:42:28;;;;;;;1.30;0.73;;;6.80;61.90;;;;;;5053888;28;47825;-68
2024/01/18 06:44:54;;;;;;;4.67;1.10;;;6.80;61.70;;;;;;5052714;28;46517;-67
2024/01/18 06:47:19;;;;;;;3.43;1.57;;;6.90;61.80;;;;;;5053691;28;46459;-68
2024/01/18 06:49:46;;;;;;;3.10;1.63;;;6.90;61.70;;;;;;5054797;28;46444;-68
2024/01/18 06:52:13;;;;;;;4.17;2.30;;;6.90;61.70;;;;;;5049362;28;47125;-68
2024/01/18 06:54:38;;;;;;;8.60;3.27;;;6.90;61.90;;;;;;5055446;28;46501;-68
2024/01/18 06:57:04;;;;;;;6.73;3.00;;;6.80;61.90;;;;;;5050481;28;46428;-68
2024/01/18 06:59:30;;;;;;;6.40;3.10;;;6.80;62.00;;;;;;5049360;28;46431;-67
2024/01/18 07:01:55;;;;;;;7.63;2.80;;;6.70;62.30;;;;;;5053421;28;46430;-68
2024/01/18 07:04:21;;;;;;;3.77;2.10;;;6.70;62.60;;;;;;5051510;28;46399;-67
2024/01/18 07:06:47;;;;;;;2.60;1.40;;;6.60;62.50;;;;;;5050075;28;46471;-71
2024/01/18 07:09:12;;;;;;;9.60;2.23;;;6.60;62.50;;;;;;5053720;28;46508;-70
2024/01/18 07:11:39;;;;;;;2.60;1.70;;;6.60;62.40;;;;;;5049384;28;46447;-68
2024/01/18 07:14:05;;;;;;;6.13;1.30;;;6.60;62.30;;;;;;5051274;28;46503;-67
2024/01/18 07:16:30;;;;;;;7.47;2.93;;;6.70;62.00;;;;;;5048458;28;46054;-68
2024/01/18 07:18:56;;;;;;;3.47;2.40;;;6.90;61.40;;;;;;5055706;28;46711;-68
2024/01/18 07:21:22;;;;;;;2.90;1.90;;;7.00;61.10;;;;;;5052545;28;47065;-67
2024/01/18 07:23:48;;;;;;;3.70;1.90;;;7.10;60.70;;;;;;5052663;28;46362;-67
2024/01/18 07:26:13;;;;;;;4.73;2.20;;;7.20;60.60;;;;;;5051087;28;46404;-66
2024/01/18 07:28:39;;;;;;;3.73;2.00;;;7.20;60.50;;;;;;5048867;28;45898;-66
2024/01/18 07:31:04;;;;;;;4.73;2.30;;;7.30;60.30;;;;;;5051130;28;47211;-67
2024/01/18 07:33:30;;;;;;;4.30;2.03;;;7.40;60.00;;;;;;5052602;28;46531;-66
2024/01/18 07:35:56;;;;;;;5.33;2.43;;;7.60;59.60;;;;;;5054250;28;46511;-68
2024/01/18 07:38:22;;;;;;;4.77;2.37;;;7.60;59.30;;;;;;5048985;28;45892;-68
2024/01/18 07:40:48;;;;;;;4.13;2.13;;;7.70;59.10;;;;;;5046451;28;47295;-69
2024/01/18 07:43:14;;;;;;;7.40;4.90;;;7.70;58.90;;;;;;5049674;28;46428;-66
2024/01/18 07:45:40;;;;;;;2.60;1.60;;;7.80;58.80;;;;;;5047014;28;46437;-67
2024/01/18 07:48:06;;;;;;;2.10;1.00;;;7.70;59.80;;;;;;5046029;28;46053;-67
2024/01/18 07:50:32;;;;;;;2.07;1.00;;;7.70;58.90;;;;;;5048133;28;47070;-68
2024/01/18 07:52:58;;;;;;;1.73;0.80;;;7.70;59.00;;;;;;5055351;28;46455;-71
2024/01/18 07:55:25;;;;;;;2.17;1.43;;;7.80;59.40;;;;;;5058984;28;46440;-68
2024/01/18 07:57:51;;;;;;;3.03;1.67;;;7.80;59.50;;;;;;5056244;28;46548;-72
2024/01/18 08:00:17;;;;;;;1.97;0.70;;;7.90;59.50;;;;;;5051913;28;46610;-70
2024/01/18 08:02:43;;;;;;;1.20;0.70;;;8.00;59.40;;;;;;5049889;28;46345;-71
2024/01/18 08:05:09;;;;;;;1.23;0.63;;;8.20;59.10;;;;;;5051954;28;46178;-71
2024/01/18 08:07:35;;;;;;;1.10;0.60;;;8.30;58.70;;;;;;5054694;28;46568;-71
2024/01/18 08:10:01;;;;;;;2.33;0.70;;;8.50;58.50;;;;;;5033757;28;48333;-71
2024/01/18 08:12:26;;;;;;;1.10;0.60;;;8.60;58.20;;;;;;5053518;28;46504;-72
2024/01/18 08:14:52;;;;;;;4.87;3.30;;;8.70;57.90;;;;;;5058678;28;46379;-72
2024/01/18 08:17:17;;;;;;;2.37;1.50;;;8.80;57.60;;;;;;5063722;28;46533;-71
2024/01/18 08:19:43;;;;;;;2.37;0.97;;;8.90;57.50;;;;;;5034935;28;46839;-72
2024/01/18 08:22:11;;;;;;;1.40;0.93;;;9.00;57.50;;;;;;5048305;28;46494;-71
2024/01/18 08:24:37;;;;;;;2.87;1.90;;;9.10;57.10;;;;;;5060046;28;46432;-71
2024/01/18 08:27:03;;;;;;;1.30;0.90;;;9.20;56.80;;;;;;5061815;28;46544;-71
2024/01/18 08:29:29;;;;;;;1.70;0.80;;;9.20;56.60;;;;;;5053468;28;48370;-72
2024/01/18 08:31:54;;;;;;;1.40;0.77;;;9.30;56.60;;;;;;5052346;28;46544;-71
2024/01/18 08:34:20;;;;;;;3.53;0.87;;;9.30;56.60;;;;;;5053785;28;46469;-72
2024/01/18 08:36:46;;;;;;;1.50;0.80;;;9.30;56.70;;;;;;5063384;28;45963;-72
2024/01/18 08:39:11;;;;;;;4.83;0.70;;;9.40;56.80;;;;;;5056367;28;46458;-71
2024/01/18 08:41:37;;;;;;;1.90;0.70;;;9.50;56.70;;;;;;5051882;28;46400;-72
2024/01/18 08:44:02;;;;;;;1.30;0.60;;;9.60;56.50;;;;;;5046435;28;46827;-71
2024/01/18 08:46:28;;;;;;;2.07;0.70;;;9.70;56.20;;;;;;5058447;28;46712;-71
2024/01/18 08:48:53;;;;;;;1.80;0.70;;;9.80;56.00;;;;;;5055901;28;47979;-71
2024/01/18 08:51:19;;;;;;;4.87;1.33;;;9.80;56.00;;;;;;5059634;28;46447;-71
2024/01/18 08:53:46;;;;;;;1.63;0.90;;;9.90;55.70;;;;;;5048993;28;46424;-71
2024/01/18 08:56:12;;;;;;;1.67;0.70;;;10.10;54.20;;;;;;5055694;28;46637;-72
2024/01/18 08:58:38;;;;;;;1.60;0.60;;;10.30;53.40;;;;;;5052429;28;47162;-72
2024/01/18 09:01:04;;;;;;;1.83;0.80;;;10.40;53.30;;;;;;5052441;28;46154;-72
2024/01/18 09:03:29;;;;;;;1.40;0.70;;;10.40;52.90;;;;;;5056486;28;46430;-72
2024/01/18 09:05:56;;;;;;;1.40;0.60;;;10.40;53.00;;;;;;5058447;28;46460;-71
2024/01/18 09:08:22;;;;;;;1.67;0.70;;;10.40;52.10;;;;;;5055456;28;47387;-72
2024/01/18 09:10:48;;;;;;;1.40;0.60;;;10.50;52.10;;;;;;5056872;28;46490;-71
2024/01/18 09:13:14;;;;;;;1.20;0.60;;;10.60;52.20;;;;;;5058433;28;46413;-72
2024/01/18 09:15:41;;;;;;;2.03;0.70;;;10.60;52.20;;;;;;5054355;28;46582;-72
2024/01/18 09:18:07;;;;;;;1.20;0.60;;;10.60;52.20;;;;;;5058549;28;46637;-72
2024/01/18 09:20:33;;;;;;;1.53;0.70;;;10.60;51.60;;;;;;5055754;28;46364;-72
2024/01/18 09:22:59;;;;;;;1.30;0.60;;;10.60;51.40;;;;;;5053115;28;46447;-72
2024/01/18 09:25:24;;;;;;;1.50;0.70;;;10.50;51.60;;;;;;5051687;28;47876;-72
2024/01/18 09:27:50;;;;;;;1.40;0.70;;;10.50;51.50;;;;;;5052928;28;46483;-72
2024/01/18 09:30:16;;;;;;;1.30;0.60;;;10.50;51.60;;;;;;5053879;28;46616;-71
2024/01/18 09:32:41;;;;;;;1.20;0.60;;;10.60;51.20;;;;;;5058099;28;46487;-71
2024/01/18 09:35:08;;;;;;;1.40;0.60;;;10.70;50.50;;;;;;5051086;28;46558;-71
2024/01/18 09:37:35;;;;;;;1.30;0.60;;;10.80;50.10;;;;;;5050803;28;46615;-73
2024/01/18 09:40:00;;;;;;;1.70;0.80;;;10.80;49.60;;;;;;5056264;22;46514;-72
2024/01/18 09:42:33;;;;;;;1.20;0.60;;;10.80;49.30;;;;;;5044068;28;46458;-72
2024/01/18 09:45:09;;;;;;;1.30;0.60;;;10.90;48.80;;;;;;5040506;28;46317;-73
2024/01/18 09:47:34;;;;;;;1.70;0.77;;;11.10;48.20;;;;;;5039458;28;47871;-72
2024/01/18 09:50:00;;;;;;;1.30;0.70;;;11.20;47.80;;;;;;5040778;28;46489;-73
2024/01/18 09:52:26;;;;;;;1.40;0.70;;;11.20;47.50;;;;;;5016442;28;46624;-73
2024/01/18 09:54:51;;;;;;;1.40;0.70;;;11.20;47.60;;;;;;5036075;28;46523;-72
2024/01/18 09:57:30;;;;;;;2.23;0.80;;;11.10;48.00;;;;;;5038959;28;46413;-72
2024/01/18 09:59:58;;;;;;;1.80;0.70;;;11.10;48.20;;;;;;5041324;28;46358;-73
2024/01/18 10:02:25;;;;;;;2.60;0.90;;;11.00;48.50;;;;;;5036887;28;46507;-72
2024/01/18 10:05:00;;;;;;;1.60;0.70;;;11.00;48.60;;;;;;5038435;28;46423;-71
2024/01/18 10:07:26;;;;;;;1.30;0.60;;;11.00;48.70;;;;;;5038868;28;46724;-73
2024/01/18 10:09:51;;;;;;;1.60;0.60;;;11.00;48.70;;;;;;5038509;28;46812;-72
2024/01/18 10:12:17;;;;;;;1.70;0.80;;;11.10;48.70;;;;;;5038578;28;46250;-72
2024/01/18 10:14:44;;;;;;;1.30;0.60;;;11.20;48.60;;;;;;5040790;28;46412;-70
2024/01/18 10:17:21;;;;;;;1.30;0.60;;;11.40;48.30;;;;;;5036314;28;46586;-71
2024/01/18 10:19:55;;;;;;;1.40;0.70;;;11.40;48.10;;;;;;5037244;28;46311;-71
2024/01/18 10:22:21;;;;;;;1.40;0.70;;;11.50;47.90;;;;;;5042341;28;46489;-72
2024/01/18 10:24:47;;;;;;;1.40;0.70;;;11.60;47.70;;;;;;5037686;28;46575;-72
2024/01/18 10:27:13;;;;;;;2.23;0.80;;;11.60;47.60;;;;;;5040590;28;46605;-72
2024/01/18 10:29:40;;;;;;;1.53;0.70;;;11.60;47.80;;;;;;5038556;28;46675;-73
2024/01/18 10:32:08;;;;;;;1.60;0.70;;;11.50;48.00;;;;;;5037103;28;45951;-72
2024/01/18 10:34:37;;;;;;;3.20;0.80;;;11.50;48.30;;;;;;5038846;28;46432;-72
2024/01/18 10:37:04;;;;;;;1.80;0.90;;;11.50;48.50;;;;;;5040663;28;46604;-73
2024/01/18 10:39:40;;;;;;;1.40;0.80;;;11.40;48.60;;;;;;5038998;28;46788;-71
2024/01/18 10:42:10;;;;;;;2.40;0.67;;;11.40;48.60;;;;;;5039912;28;46344;-72
2024/01/18 10:44:43;;;;;;;1.60;0.80;;;11.40;48.60;;;;;;5036763;28;46741;-72
2024/01/18 10:47:13;;;;;;;2.03;0.70;;;11.40;48.50;;;;;;5038488;28;48392;-72
2024/01/18 10:49:42;;;;;;;1.93;0.70;;;11.40;48.40;;;;;;5035633;28;46310;-72
2024/01/18 10:52:09;;;;;;;1.67;0.70;;;11.50;48.00;;;;;;5039104;28;46490;-71
2024/01/18 10:54:36;;;;;;;1.60;0.70;;;11.60;47.70;;;;;;5039602;28;46393;-72
2024/01/18 10:57:02;;;;;;;1.47;0.70;;;11.80;47.30;;;;;;5037572;28;46975;-72
2024/01/18 10:59:31;;;;;;;2.03;0.90;;;11.90;46.70;;;;;;5039809;28;46301;-72
2024/01/18 11:01:59;;;;;;;1.30;0.60;;;12.00;46.20;;;;;;5042322;28;46480;-72
2024/01/18 11:04:27;;;;;;;1.50;0.70;;;12.00;47.20;;;;;;5039774;28;46369;-72
2024/01/18 11:06:57;;;;;;;1.40;0.70;;;12.00;45.70;;;;;;5043858;28;47316;-71
2024/01/18 11:09:29;;;;;;;4.13;0.90;;;12.10;45.40;;;;;;5039095;28;45815;-72
2024/01/18 11:11:56;;;;;;;1.60;0.80;;;12.40;44.80;;;;;;5038453;28;46431;-72
2024/01/18 11:14:22;;;;;;;1.77;0.70;;;12.50;43.80;;;;;;5035415;28;46504;-71
2024/01/18 11:16:48;;;;;;;1.47;0.70;;;12.60;43.20;;;;;;5036822;28;46697;-71
2024/01/18 11:19:37;;;;;;;2.00;1.10;;;12.60;42.30;;;;;;5028044;28;46412;-71
2024/01/18 11:22:03;;;;;;;1.50;0.70;;;12.60;42.30;;;;;;5035719;28;46612;-72
2024/01/18 11:24:28;;;;;;;3.10;0.70;;;12.60;41.70;;;;;;5037874;28;46319;-71
2024/01/18 11:26:57;;;;;;;1.80;0.70;;;12.60;41.90;;;;;;5037132;28;47290;-71
2024/01/18 11:29:25;;;;;;;3.10;1.00;;;12.60;41.40;;;;;;5038050;28;46416;-72
2024/01/18 11:31:51;;;;;;;1.40;0.60;;;12.60;41.30;;;;;;5036204;28;46583;-72
2024/01/18 11:34:38;;;;;;;1.50;0.70;;;12.60;40.90;;;;;;5041729;28;46411;-72
2024/01/18 11:37:12;;;;;;;1.70;0.70;;;12.60;40.80;;;;;;5037298;28;46310;-72
2024/01/18 11:39:47;;;;;;;2.03;0.90;;;12.60;40.80;;;;;;5040426;28;46364;-72
2024/01/18 11:42:27;;;;;;;1.30;0.60;;;12.50;40.50;;;;;;5035026;28;46835;-72
2024/01/18 11:45:11;;;;;;;1.50;0.70;;;12.40;40.60;;;;;;5032152;28;46441;-71
2024/01/18 11:47:37;;;;;;;1.50;0.70;;;12.30;39.00;;;;;;5039178;28;48079;-71
2024/01/18 11:50:05;;;;;;;1.70;0.70;;;12.20;39.50;;;;;;5040338;28;45849;-72
2024/01/18 11:52:35;;;;;;;1.80;0.80;;;12.40;39.40;;;;;;5035910;28;46429;-72
2024/01/18 11:55:02;;;;;;;2.57;1.20;;;12.40;38.80;;;;;;5034503;28;46655;-72
2024/01/18 11:57:29;;;;;;;1.43;0.63;;;12.40;37.80;;;;;;5036120;28;46487;-72
2024/01/18 11:59:54;;;;;;;1.60;0.70;;;12.40;37.60;;;;;;5022071;28;46414;-72
2024/01/18 12:02:21;;;;;;;1.47;0.70;;;12.50;37.40;;;;;;5033184;28;46470;-72
2024/01/18 12:04:48;;;;;;;1.60;0.70;;;12.60;37.00;;;;;;5035908;28;46075;-72
2024/01/18 12:07:14;;;;;;;1.50;0.70;;;12.60;36.80;;;;;;5033474;28;47550;-72
2024/01/18 12:09:40;;;;;;;1.40;0.60;;;12.60;36.70;;;;;;5037594;28;46449;-72
2024/01/18 12:12:07;;;;;;;1.50;0.70;;;12.50;36.60;;;;;;5038486;28;46492;-72
2024/01/18 12:14:33;;;;;;;1.40;0.70;;;12.50;36.80;;;;;;5039043;28;46575;-72
2024/01/18 12:17:00;;;;;;;1.40;0.67;;;12.40;36.80;;;;;;5041553;28;46730;-71
2024/01/18 12:19:32;;;;;;;1.50;0.70;;;12.40;36.90;;;;;;5040242;28;46350;-71
2024/01/18 12:22:01;;;;;;;1.60;0.80;;;12.40;36.80;;;;;;5040457;28;46345;-72
2024/01/18 12:24:26;;;;;;;2.20;1.20;;;12.40;36.90;;;;;;5038522;28;46666;-72
2024/01/18 12:26:53;;;;;;;2.17;1.37;;;12.40;36.90;;;;;;5038797;28;46060;-72
2024/01/18 12:29:19;;;;;;;2.40;1.10;;;12.40;37.10;;;;;;5044036;28;46752;-71
2024/01/18 12:31:46;;;;;;;1.50;0.77;;;12.30;37.10;;;;;;5043039;28;46774;-72
2024/01/18 12:34:13;;;;;;;1.50;0.70;;;12.30;37.30;;;;;;5041907;28;46769;-72
2024/01/18 12:36:39;;;;;;;1.60;0.70;;;12.30;37.50;;;;;;5042340;28;46271;-72
2024/01/18 12:39:05;;;;;;;1.73;0.83;;;12.20;37.40;;;;;;5039426;28;46468;-72
2024/01/18 12:41:31;;;;;;;1.73;0.83;;;12.20;37.50;;;;;;5036272;28;46464;-72
2024/01/18 12:44:07;;;;;;;1.70;0.70;;;12.20;37.60;;;;;;5039715;28;46405;-72
2024/01/18 12:46:35;;;;;;;1.80;0.80;;;12.10;37.80;;;;;;5042316;28;46605;-72
2024/01/18 12:49:01;;;;;;;1.73;0.80;;;12.00;38.20;;;;;;5042793;28;46413;-72